sensor_id;sensor_type;location;lat;lon;timestamp;pressure;altitude;pressure_sealevel;temperature;humidity
60307;BME280;46155;52.364;6.580;2022-11-27T04:01:52;102153.84;;;4.53;100.00
60307;BME280;46155;52.364;6.580;2022-11-27T04:04:17;102145.88;;;4.52;100.00
60307;BME280;46155;52.364;6.580;2022-11-27T04:06:42;102148.16;;;4.48;100.00
60307;BME280;46155;52.364;6.580;2022-11-27T04:09:08;102143.75;;;4.56;100.00
60307;BME280;46155;52.364;6.580;2022-11-27T04:11:33;102154.16;;;4.56;100.00
60307;BME280;46155;52.364;6.580;2022-11-27T04:13:59;102146.06;;;4.62;100.00
60307;BME280;46155;52.364;6.580;2022-11-27T04:16:24;102136.88;;;4.57;100.00
60307;BME280;46155;52.364;6.580;2022-11-27T04:18:49;102137.94;;;4.59;100.00
60307;BME280;46155;52.364;6.580;2022-11-27T04:21:15;102152.97;;;4.61;100.00
60307;BME280;46155;52.364;6.580;2022-11-27T04:23:41;102143.47;;;4.62;100.00
60307;BME280;46155;52.364;6.580;2022-11-27T04:26:06;102149.09;;;4.58;100.00
60307;BME280;46155;52.364;6.580;2022-11-27T04:28:32;102132.13;;;4.53;100.00
60307;BME280;46155;52.364;6.580;2022-11-27T04:30:57;102126.16;;;4.54;100.00
60307;BME280;46155;52.364;6.580;2022-11-27T04:33:23;102125.81;;;4.51;100.00
60307;BME280;46155;52.364;6.580;2022-11-27T04:35:49;102124.31;;;4.53;100.00
60307;BME280;46155;52.364;6.580;2022-11-27T04:38:14;102129.94;;;4.48;100.00
60307;BME280;46155;52.364;6.580;2022-11-27T04:40:39;102130.41;;;4.53;100.00
60307;BME280;46155;52.364;6.580;2022-11-27T04:43:05;102114.44;;;4.41;100.00
60307;BME280;46155;52.364;6.580;2022-11-27T04:45:30;102145.38;;;4.47;100.00
60307;BME280;46155;52.364;6.580;2022-11-27T04:47:55;102142.19;;;4.50;100.00
60307;BME280;46155;52.364;6.580;2022-11-27T04:50:21;102149.06;;;4.49;100.00
60307;BME280;46155;52.364;6.580;2022-11-27T04:52:46;102144.44;;;4.46;100.00
60307;BME280;46155;52.364;6.580;2022-11-27T04:55:11;102142.63;;;4.45;100.00
60307;BME280;46155;52.364;6.580;2022-11-27T04:57:36;102128.34;;;4.42;100.00
60307;BME280;46155;52.364;6.580;2022-11-27T05:00:03;102136.75;;;4.39;100.00
60307;BME280;46155;52.364;6.580;2022-11-27T05:02:29;102137.84;;;4.41;100.00
60307;BME280;46155;52.364;6.580;2022-11-27T05:04:54;102128.94;;;4.39;100.00
60307;BME280;46155;52.364;6.580;2022-11-27T05:07:19;102125.44;;;4.39;100.00
60307;BME280;46155;52.364;6.580;2022-11-27T05:09:47;102115.63;;;4.36;100.00
60307;BME280;46155;52.364;6.580;2022-11-27T05:12:12;102120.41;;;4.40;100.00
60307;BME280;46155;52.364;6.580;2022-11-27T05:14:38;102118.91;;;4.42;100.00
60307;BME280;46155;52.364;6.580;2022-11-27T05:17:03;102112.59;;;4.40;100.00
60307;BME280;46155;52.364;6.580;2022-11-27T05:19:29;102110.91;;;4.41;100.00
60307;BME280;46155;52.364;6.580;2022-11-27T05:21:56;102104.81;;;4.40;100.00
60307;BME280;46155;52.364;6.580;2022-11-27T05:24:23;102102.63;;;4.36;100.00
60307;BME280;46155;52.364;6.580;2022-11-27T05:26:49;102102.03;;;4.39;100.00
60307;BME280;46155;52.364;6.580;2022-11-27T05:29:15;102097.00;;;4.40;100.00
60307;BME280;46155;52.364;6.580;2022-11-27T05:31:41;102098.84;;;4.41;100.00
60307;BME280;46155;52.364;6.580;2022-11-27T05:34:07;102083.69;;;4.37;100.00
60307;BME280;46155;52.364;6.580;2022-11-27T05:36:33;102081.06;;;4.37;100.00
60307;BME280;46155;52.364;6.580;2022-11-27T05:39:00;102092.53;;;4.39;100.00
60307;BME280;46155;52.364;6.580;2022-11-27T05:41:26;102083.69;;;4.37;100.00
60307;BME280;46155;52.364;6.580;2022-11-27T05:43:51;102064.59;;;4.21;100.00
60307;BME280;46155;52.364;6.580;2022-11-27T05:46:20;102084.44;;;4.36;100.00
60307;BME280;46155;52.364;6.580;2022-11-27T05:48:46;102078.16;;;4.34;100.00
60307;BME280;46155;52.364;6.580;2022-11-27T05:51:12;102077.72;;;4.38;100.00
60307;BME280;46155;52.364;6.580;2022-11-27T05:53:37;102080.75;;;4.34;100.00
60307;BME280;46155;52.364;6.580;2022-11-27T05:56:08;102073.81;;;4.26;100.00
60307;BME280;46155;52.364;6.580;2022-11-27T05:58:34;102078.00;;;4.33;100.00
60307;BME280;46155;52.364;6.580;2022-11-27T06:01:00;102069.25;;;4.32;100.00
60307;BME280;46155;52.364;6.580;2022-11-27T06:03:25;102070.78;;;4.30;100.00
60307;BME280;46155;52.364;6.580;2022-11-27T06:05:51;102067.31;;;4.38;100.00
60307;BME280;46155;52.364;6.580;2022-11-27T06:08:17;102055.97;;;4.38;100.00
60307;BME280;46155;52.364;6.580;2022-11-27T06:10:43;102069.16;;;4.39;100.00
60307;BME280;46155;52.364;6.580;2022-11-27T06:13:09;102068.25;;;4.39;100.00
60307;BME280;46155;52.364;6.580;2022-11-27T06:15:35;102063.19;;;4.40;100.00
60307;BME280;46155;52.364;6.580;2022-11-27T06:18:01;102057.25;;;4.41;100.00
60307;BME280;46155;52.364;6.580;2022-11-27T06:20:26;102061.69;;;4.42;100.00
60307;BME280;46155;52.364;6.580;2022-11-27T06:22:51;102054.66;;;4.41;100.00
60307;BME280;46155;52.364;6.580;2022-11-27T06:25:16;102049.44;;;4.41;100.00
60307;BME280;46155;52.364;6.580;2022-11-27T06:27:42;102055.88;;;4.45;100.00
60307;BME280;46155;52.364;6.580;2022-11-27T06:30:08;102045.63;;;4.46;100.00
60307;BME280;46155;52.364;6.580;2022-11-27T06:32:33;102054.38;;;4.47;100.00
60307;BME280;46155;52.364;6.580;2022-11-27T06:34:59;102048.22;;;4.46;100.00
60307;BME280;46155;52.364;6.580;2022-11-27T06:37:25;102046.72;;;4.48;100.00
60307;BME280;46155;52.364;6.580;2022-11-27T06:39:51;102038.28;;;4.42;100.00
60307;BME280;46155;52.364;6.580;2022-11-27T06:42:16;102035.34;;;4.39;100.00
60307;BME280;46155;52.364;6.580;2022-11-27T06:44:41;102044.13;;;4.48;100.00
60307;BME280;46155;52.364;6.580;2022-11-27T06:47:07;102038.19;;;4.50;100.00
60307;BME280;46155;52.364;6.580;2022-11-27T06:49:32;102039.25;;;4.52;100.00
60307;BME280;46155;52.364;6.580;2022-11-27T06:51:57;102021.78;;;4.51;100.00
60307;BME280;46155;52.364;6.580;2022-11-27T06:54:23;102030.84;;;4.54;100.00
60307;BME280;46155;52.364;6.580;2022-11-27T06:56:49;102037.91;;;4.55;100.00
60307;BME280;46155;52.364;6.580;2022-11-27T06:59:15;102038.66;;;4.54;100.00
60307;BME280;46155;52.364;6.580;2022-11-27T07:01:41;102041.09;;;4.53;100.00
60307;BME280;46155;52.364;6.580;2022-11-27T07:04:12;102035.13;;;4.54;100.00
60307;BME280;46155;52.364;6.580;2022-11-27T07:06:39;102027.81;;;4.58;100.00
60307;BME280;46155;52.364;6.580;2022-11-27T07:09:05;102026.88;;;4.58;100.00
60307;BME280;46155;52.364;6.580;2022-11-27T07:11:31;102015.28;;;4.63;100.00
60307;BME280;46155;52.364;6.580;2022-11-27T07:13:58;102020.00;;;4.58;100.00
60307;BME280;46155;52.364;6.580;2022-11-27T07:16:25;102007.31;;;4.61;100.00
60307;BME280;46155;52.364;6.580;2022-11-27T07:18:52;102012.06;;;4.65;100.00
60307;BME280;46155;52.364;6.580;2022-11-27T07:21:19;102013.13;;;4.68;100.00
60307;BME280;46155;52.364;6.580;2022-11-27T07:23:45;101999.06;;;4.65;100.00
60307;BME280;46155;52.364;6.580;2022-11-27T07:26:18;102015.91;;;4.69;100.00
60307;BME280;46155;52.364;6.580;2022-11-27T07:28:44;102015.31;;;4.72;100.00
60307;BME280;46155;52.364;6.580;2022-11-27T07:31:15;102019.91;;;4.74;100.00
60307;BME280;46155;52.364;6.580;2022-11-27T07:33:40;102020.22;;;4.77;100.00
60307;BME280;46155;52.364;6.580;2022-11-27T07:36:17;102017.16;;;4.81;100.00
60307;BME280;46155;52.364;6.580;2022-11-27T07:38:44;102015.31;;;4.80;100.00
60307;BME280;46155;52.364;6.580;2022-11-27T07:41:09;102015.31;;;4.80;100.00
60307;BME280;46155;52.364;6.580;2022-11-27T07:43:35;102013.50;;;4.79;100.00
60307;BME280;46155;52.364;6.580;2022-11-27T07:48:37;101996.66;;;4.85;100.00
60307;BME280;46155;52.364;6.580;2022-11-27T07:51:07;101989.50;;;4.91;100.00
60307;BME280;46155;52.364;6.580;2022-11-27T07:53:38;101986.13;;;4.92;100.00
60307;BME280;46155;52.364;6.580;2022-11-27T07:56:08;101976.50;;;4.91;100.00
60307;BME280;46155;52.364;6.580;2022-11-27T07:58:34;101987.53;;;4.97;100.00
60307;BME280;46155;52.364;6.580;2022-11-27T08:01:00;101971.91;;;4.97;100.00
60307;BME280;46155;52.364;6.580;2022-11-27T08:03:25;101963.63;;;4.92;100.00
60307;BME280;46155;52.364;6.580;2022-11-27T08:05:51;101977.41;;;5.00;100.00
60307;BME280;46155;52.364;6.580;2022-11-27T08:08:16;101977.72;;;5.03;100.00
60307;BME280;46155;52.364;6.580;2022-11-27T08:10:42;101972.84;;;5.06;100.00
60307;BME280;46155;52.364;6.580;2022-11-27T08:13:07;101971.16;;;5.07;100.00
60307;BME280;46155;52.364;6.580;2022-11-27T08:15:33;101966.09;;;5.08;100.00
60307;BME280;46155;52.364;6.580;2022-11-27T08:17:58;101962.91;;;5.02;100.00
60307;BME280;46155;52.364;6.580;2022-11-27T08:20:24;101964.25;;;5.07;100.00
60307;BME280;46155;52.364;6.580;2022-11-27T08:22:49;101952.63;;;5.04;100.00
60307;BME280;46155;52.364;6.580;2022-11-27T08:25:15;101953.84;;;5.07;100.00
60307;BME280;46155;52.364;6.580;2022-11-27T08:27:40;101944.22;;;5.06;100.00
60307;BME280;46155;52.364;6.580;2022-11-27T08:30:06;101930.28;;;5.06;100.00
60307;BME280;46155;52.364;6.580;2022-11-27T08:32:32;101932.28;;;5.08;100.00
60307;BME280;46155;52.364;6.580;2022-11-27T08:34:57;101937.03;;;5.04;100.00
60307;BME280;46155;52.364;6.580;2022-11-27T08:37:22;101937.78;;;5.03;100.00
60307;BME280;46155;52.364;6.580;2022-11-27T08:39:48;101945.28;;;5.08;100.00
60307;BME280;46155;52.364;6.580;2022-11-27T08:42:13;101940.38;;;5.11;100.00
60307;BME280;46155;52.364;6.580;2022-11-27T08:44:38;101946.38;;;5.10;100.00
60307;BME280;46155;52.364;6.580;2022-11-27T08:47:03;101931.81;;;5.12;100.00
60307;BME280;46155;52.364;6.580;2022-11-27T08:49:29;101935.97;;;5.10;100.00
60307;BME280;46155;52.364;6.580;2022-11-27T08:51:54;101938.09;;;5.06;100.00
60307;BME280;46155;52.364;6.580;2022-11-27T08:54:19;101937.94;;;5.04;100.00
60307;BME280;46155;52.364;6.580;2022-11-27T08:56:45;101938.22;;;5.07;100.00
60307;BME280;46155;52.364;6.580;2022-11-27T08:59:10;101939.03;;;5.06;100.00
60307;BME280;46155;52.364;6.580;2022-11-27T09:01:35;101937.94;;;5.04;100.00
60307;BME280;46155;52.364;6.580;2022-11-27T09:04:01;101934.13;;;5.09;100.00
60307;BME280;46155;52.364;6.580;2022-11-27T09:06:28;101950.19;;;5.14;100.00
60307;BME280;46155;52.364;6.580;2022-11-27T09:08:58;101940.69;;;5.14;100.00
60307;BME280;46155;52.364;6.580;2022-11-27T09:11:25;101938.09;;;5.14;100.00
60307;BME280;46155;52.364;6.580;2022-11-27T09:13:51;101942.53;;;5.15;100.00
60307;BME280;46155;52.364;6.580;2022-11-27T09:16:18;101929.66;;;5.08;100.00
60307;BME280;46155;52.364;6.580;2022-11-27T09:18:45;101933.66;;;5.13;100.00
60307;BME280;46155;52.364;6.580;2022-11-27T09:21:13;101935.47;;;5.14;100.00
60307;BME280;46155;52.364;6.580;2022-11-27T09:23:39;101944.22;;;5.15;100.00
60307;BME280;46155;52.364;6.580;2022-11-27T09:26:18;101944.38;;;5.16;100.00
60307;BME280;46155;52.364;6.580;2022-11-27T09:28:44;101942.22;;;5.21;100.00
60307;BME280;46155;52.364;6.580;2022-11-27T09:31:12;101937.03;;;5.21;100.00
60307;BME280;46155;52.364;6.580;2022-11-27T09:33:39;101935.38;;;5.22;100.00
60307;BME280;46155;52.364;6.580;2022-11-27T09:36:05;101939.78;;;5.23;100.00
60307;BME280;46155;52.364;6.580;2022-11-27T09:38:31;101941.31;;;5.21;100.00
60307;BME280;46155;52.364;6.580;2022-11-27T09:41:03;101947.28;;;5.20;100.00
60307;BME280;46155;52.364;6.580;2022-11-27T09:43:34;101943.78;;;5.19;100.00
60307;BME280;46155;52.364;6.580;2022-11-27T09:46:11;101944.69;;;5.20;100.00
60307;BME280;46155;52.364;6.580;2022-11-27T09:48:42;101936.56;;;5.16;100.00
60307;BME280;46155;52.364;6.580;2022-11-27T09:51:26;101936.88;;;5.20;100.00
60307;BME280;46155;52.364;6.580;2022-11-27T09:54:04;101941.31;;;5.21;100.00
60307;BME280;46155;52.364;6.580;2022-11-27T09:56:33;101933.97;;;5.16;100.00
60307;BME280;46155;52.364;6.580;2022-11-27T09:59:01;101933.22;;;5.17;100.00
60307;BME280;46155;52.364;6.580;2022-11-27T10:01:30;101937.47;;;5.17;100.00
60307;BME280;46155;52.364;6.580;2022-11-27T10:03:56;101925.06;;;5.14;100.00
60307;BME280;46155;52.364;6.580;2022-11-27T10:06:36;101926.91;;;5.15;100.00
60307;BME280;46155;52.364;6.580;2022-11-27T10:12:05;101918.34;;;5.25;100.00
60307;BME280;46155;52.364;6.580;2022-11-27T10:17:55;101903.03;;;5.20;100.00
60307;BME280;46155;52.364;6.580;2022-11-27T10:20:35;101899.97;;;5.15;100.00
60307;BME280;46155;52.364;6.580;2022-11-27T10:23:17;101880.97;;;5.07;100.00
60307;BME280;46155;52.364;6.580;2022-11-27T10:25:47;101896.91;;;5.10;100.00
60307;BME280;46155;52.364;6.580;2022-11-27T10:31:11;101869.50;;;5.05;100.00
60307;BME280;46155;52.364;6.580;2022-11-27T10:33:42;101878.84;;;5.12;100.00
60307;BME280;46155;52.364;6.580;2022-11-27T10:36:29;101880.66;;;5.13;100.00
60307;BME280;46155;52.364;6.580;2022-11-27T10:38:56;101871.94;;;5.12;100.00
60307;BME280;46155;52.364;6.580;2022-11-27T10:41:27;101858.78;;;5.11;100.00
60307;BME280;46155;52.364;6.580;2022-11-27T10:43:56;101868.13;;;5.17;100.00
60307;BME280;46155;52.364;6.580;2022-11-27T10:46:29;101865.97;;;5.13;100.00
60307;BME280;46155;52.364;6.580;2022-11-27T10:48:56;101856.16;;;5.20;100.00
60307;BME280;46155;52.364;6.580;2022-11-27T10:51:31;101851.09;;;5.21;100.00
60307;BME280;46155;52.364;6.580;2022-11-27T10:53:58;101845.00;;;5.21;100.00
60307;BME280;46155;52.364;6.580;2022-11-27T10:59:16;101856.47;;;5.40;100.00
60307;BME280;46155;52.364;6.580;2022-11-27T11:01:47;101853.22;;;5.43;100.00
60307;BME280;46155;52.364;6.580;2022-11-27T11:04:15;101836.22;;;5.46;100.00
60307;BME280;46155;52.364;6.580;2022-11-27T11:06:45;101830.72;;;5.43;100.00
60307;BME280;46155;52.364;6.580;2022-11-27T11:09:15;101831.91;;;5.47;100.00
60307;BME280;46155;52.364;6.580;2022-11-27T11:11:42;101839.25;;;5.51;100.00
60307;BME280;46155;52.364;6.580;2022-11-27T11:14:16;101829.47;;;5.57;100.00
60307;BME280;46155;52.364;6.580;2022-11-27T11:16:42;101824.53;;;5.60;100.00
60307;BME280;46155;52.364;6.580;2022-11-27T11:19:22;101832.78;;;5.65;100.00
60307;BME280;46155;52.364;6.580;2022-11-27T11:21:47;101834.31;;;5.72;100.00
60307;BME280;46155;52.364;6.580;2022-11-27T11:24:20;101834.47;;;5.73;100.00
60307;BME280;46155;52.364;6.580;2022-11-27T11:26:49;101815.28;;;5.73;100.00
60307;BME280;46155;52.364;6.580;2022-11-27T11:31:51;101806.41;;;5.71;100.00
60307;BME280;46155;52.364;6.580;2022-11-27T11:34:22;101812.53;;;5.80;100.00
60307;BME280;46155;52.364;6.580;2022-11-27T11:37:04;101807.94;;;5.77;100.00
60307;BME280;46155;52.364;6.580;2022-11-27T11:39:33;101806.22;;;5.78;100.00
60307;BME280;46155;52.364;6.580;2022-11-27T11:42:28;101802.09;;;5.71;100.00
60307;BME280;46155;52.364;6.580;2022-11-27T11:45:05;101786.47;;;5.71;100.00
60307;BME280;46155;52.364;6.580;2022-11-27T11:47:49;101786.94;;;5.76;100.00
60307;BME280;46155;52.364;6.580;2022-11-27T11:53:40;101777.63;;;5.69;100.00
60307;BME280;46155;52.364;6.580;2022-11-27T11:58:55;101765.78;;;5.73;100.00
60307;BME280;46155;52.364;6.580;2022-11-27T12:01:44;101756.72;;;5.78;100.00
60307;BME280;46155;52.364;6.580;2022-11-27T12:10:11;101760.56;;;5.73;100.00
60307;BME280;46155;52.364;6.580;2022-11-27T12:15:39;101746.91;;;5.75;100.00
60307;BME280;46155;52.364;6.580;2022-11-27T12:18:25;101745.13;;;5.65;100.00
60307;BME280;46155;52.364;6.580;2022-11-27T12:21:13;101744.31;;;5.75;100.00
60307;BME280;46155;52.364;6.580;2022-11-27T12:27:18;101725.50;;;5.69;100.00
60307;BME280;46155;52.364;6.580;2022-11-27T12:30:11;101726.69;;;5.73;100.00
60307;BME280;46155;52.364;6.580;2022-11-27T12:32:51;101715.38;;;5.72;100.00
60307;BME280;46155;52.364;6.580;2022-11-27T12:43:42;101681.78;;;5.75;100.00
60307;BME280;46155;52.364;6.580;2022-11-27T12:46:15;101676.56;;;5.75;100.00
60307;BME280;46155;52.364;6.580;2022-11-27T12:48:51;101676.38;;;5.82;100.00
60307;BME280;46155;52.364;6.580;2022-11-27T12:51:36;101671.63;;;5.78;100.00
60307;BME280;46155;52.364;6.580;2022-11-27T12:54:13;101673.75;;;5.82;100.00
60307;BME280;46155;52.364;6.580;2022-11-27T12:56:45;101670.69;;;5.86;100.00
60307;BME280;46155;52.364;6.580;2022-11-27T12:59:30;101661.31;;;5.89;100.00
60307;BME280;46155;52.364;6.580;2022-11-27T13:02:17;101656.13;;;5.89;100.00
60307;BME280;46155;52.364;6.580;2022-11-27T13:04:55;101653.78;;;5.92;100.00
60307;BME280;46155;52.364;6.580;2022-11-27T13:07:43;101647.16;;;5.95;100.00
60307;BME280;46155;52.364;6.580;2022-11-27T13:15:26;101637.84;;;5.97;100.00
60307;BME280;46155;52.364;6.580;2022-11-27T13:20:42;101631.78;;;6.07;100.00
60307;BME280;46155;52.364;6.580;2022-11-27T13:23:09;101632.06;;;6.10;100.00
60307;BME280;46155;52.364;6.580;2022-11-27T13:25:41;101627.34;;;6.06;100.00
60307;BME280;46155;52.364;6.580;2022-11-27T13:28:21;101625.94;;;6.10;100.00
60307;BME280;46155;52.364;6.580;2022-11-27T13:30:50;101626.09;;;6.11;100.00
60307;BME280;46155;52.364;6.580;2022-11-27T13:33:45;101632.56;;;6.06;100.00
60307;BME280;46155;52.364;6.580;2022-11-27T13:36:26;101629.31;;;6.09;100.00
60307;BME280;46155;52.364;6.580;2022-11-27T13:39:00;101625.00;;;6.09;100.00
60307;BME280;46155;52.364;6.580;2022-11-27T13:41:45;101617.69;;;6.05;100.00
60307;BME280;46155;52.364;6.580;2022-11-27T13:44:23;101621.22;;;6.06;100.00
60307;BME280;46155;52.364;6.580;2022-11-27T13:46:50;101615.88;;;6.04;100.00
60307;BME280;46155;52.364;6.580;2022-11-27T13:49:31;101594.88;;;5.94;100.00
60307;BME280;46155;52.364;6.580;2022-11-27T13:52:18;101591.38;;;5.93;100.00
60307;BME280;46155;52.364;6.580;2022-11-27T13:54:53;101608.06;;;6.04;100.00
60307;BME280;46155;52.364;6.580;2022-11-27T13:57:19;101600.72;;;6.00;100.00
60307;BME280;46155;52.364;6.580;2022-11-27T14:00:09;101599.66;;;5.98;100.00
60307;BME280;46155;52.364;6.580;2022-11-27T14:02:49;101600.22;;;6.04;100.00
60307;BME280;46155;52.364;6.580;2022-11-27T14:05:17;101595.00;;;6.04;100.00
60307;BME280;46155;52.364;6.580;2022-11-27T14:07:46;101596.56;;;6.02;100.00
60307;BME280;46155;52.364;6.580;2022-11-27T14:10:22;101586.41;;;6.05;100.00
60307;BME280;46155;52.364;6.580;2022-11-27T14:13:04;101575.97;;;6.05;100.00
60307;BME280;46155;52.364;6.580;2022-11-27T14:15:32;101565.75;;;5.98;100.00
60307;BME280;46155;52.364;6.580;2022-11-27T14:18:06;101574.34;;;5.97;100.00
60307;BME280;46155;52.364;6.580;2022-11-27T14:21:04;101576.94;;;5.97;100.00
60307;BME280;46155;52.364;6.580;2022-11-27T14:23:47;101567.16;;;5.94;100.00
60307;BME280;46155;52.364;6.580;2022-11-27T14:28:41;101551.06;;;5.90;100.00
60307;BME280;46155;52.364;6.580;2022-11-27T14:31:21;101560.09;;;5.93;100.00
60307;BME280;46155;52.364;6.580;2022-11-27T14:33:49;101549.41;;;5.90;100.00
60307;BME280;46155;52.364;6.580;2022-11-27T14:36:27;101538.84;;;5.89;100.00
60307;BME280;46155;52.364;6.580;2022-11-27T14:38:54;101537.63;;;5.85;100.00
60307;BME280;46155;52.364;6.580;2022-11-27T14:41:22;101543.91;;;5.87;100.00
60307;BME280;46155;52.364;6.580;2022-11-27T14:44:01;101522.75;;;5.84;100.00
60307;BME280;46155;52.364;6.580;2022-11-27T14:46:27;101529.81;;;5.85;100.00
60307;BME280;46155;52.364;6.580;2022-11-27T14:48:54;101528.16;;;5.85;100.00
60307;BME280;46155;52.364;6.580;2022-11-27T14:51:25;101526.31;;;5.84;100.00
60307;BME280;46155;52.364;6.580;2022-11-27T14:53:59;101512.78;;;5.89;100.00
60307;BME280;46155;52.364;6.580;2022-11-27T14:56:32;101506.22;;;5.83;100.00
60307;BME280;46155;52.364;6.580;2022-11-27T14:58:58;101498.00;;;5.79;100.00
60307;BME280;46155;52.364;6.580;2022-11-27T15:01:34;101495.88;;;5.75;100.00
60307;BME280;46155;52.364;6.580;2022-11-27T15:04:03;101495.25;;;5.77;100.00
60307;BME280;46155;52.364;6.580;2022-11-27T15:06:40;101494.47;;;5.78;100.00
60307;BME280;46155;52.364;6.580;2022-11-27T15:09:22;101490.03;;;5.77;100.00
60307;BME280;46155;52.364;6.580;2022-11-27T15:11:55;101490.03;;;5.77;100.00
60307;BME280;46155;52.364;6.580;2022-11-27T15:14:23;101482.22;;;5.77;100.00
60307;BME280;46155;52.364;6.580;2022-11-27T15:16:50;101479.19;;;5.73;100.00
60307;BME280;46155;52.364;6.580;2022-11-27T15:19:26;101481.16;;;5.75;100.00
60307;BME280;46155;52.364;6.580;2022-11-27T15:21:53;101477.56;;;5.83;100.00
60307;BME280;46155;52.364;6.580;2022-11-27T15:24:29;101473.63;;;5.78;100.00
60307;BME280;46155;52.364;6.580;2022-11-27T15:27:06;101472.56;;;5.76;100.00
60307;BME280;46155;52.364;6.580;2022-11-27T15:29:35;101461.38;;;5.77;100.00
60307;BME280;46155;52.364;6.580;2022-11-27T15:32:03;101444.69;;;5.75;100.00
60307;BME280;46155;52.364;6.580;2022-11-27T15:34:31;101454.09;;;5.83;100.00
60307;BME280;46155;52.364;6.580;2022-11-27T15:37:00;101451.91;;;5.88;100.00
60307;BME280;46155;52.364;6.580;2022-11-27T15:39:35;101449.16;;;5.86;100.00
60307;BME280;46155;52.364;6.580;2022-11-27T15:42:03;101441.97;;;5.84;100.00
60307;BME280;46155;52.364;6.580;2022-11-27T15:44:32;101442.16;;;5.85;100.00
60307;BME280;46155;52.364;6.580;2022-11-27T15:47:00;101436.78;;;5.84;100.00
60307;BME280;46155;52.364;6.580;2022-11-27T15:49:26;101441.22;;;5.85;100.00
60307;BME280;46155;52.364;6.580;2022-11-27T15:51:53;101441.34;;;5.86;100.00
60307;BME280;46155;52.364;6.580;2022-11-27T15:54:19;101430.66;;;5.83;100.00
60307;BME280;46155;52.364;6.580;2022-11-27T15:56:44;101433.53;;;5.86;100.00
60307;BME280;46155;52.364;6.580;2022-11-27T15:59:11;101424.69;;;5.84;100.00
60307;BME280;46155;52.364;6.580;2022-11-27T16:01:36;101439.81;;;5.89;100.00
60307;BME280;46155;52.364;6.580;2022-11-27T16:04:02;101432.63;;;5.86;100.00
60307;BME280;46155;52.364;6.580;2022-11-27T16:06:27;101433.41;;;5.85;100.00
60307;BME280;46155;52.364;6.580;2022-11-27T16:08:57;101427.16;;;5.83;100.00
60307;BME280;46155;52.364;6.580;2022-11-27T16:11:24;101427.41;;;5.86;100.00
60307;BME280;46155;52.364;6.580;2022-11-27T16:13:50;101426.22;;;5.82;100.00
60307;BME280;46155;52.364;6.580;2022-11-27T16:16:16;101424.94;;;5.88;100.00
60307;BME280;46155;52.364;6.580;2022-11-27T16:18:41;101423.38;;;5.90;100.00
60307;BME280;46155;52.364;6.580;2022-11-27T16:21:09;101419.38;;;5.93;100.00
60307;BME280;46155;52.364;6.580;2022-11-27T16:23:37;101411.41;;;5.92;100.00
60307;BME280;46155;52.364;6.580;2022-11-27T16:26:03;101412.44;;;5.94;100.00
60307;BME280;46155;52.364;6.580;2022-11-27T16:28:30;101403.72;;;5.93;100.00
60307;BME280;46155;52.364;6.580;2022-11-27T16:30:57;101397.63;;;5.93;100.00
60307;BME280;46155;52.364;6.580;2022-11-27T16:33:27;101393.56;;;5.96;100.00
60307;BME280;46155;52.364;6.580;2022-11-27T16:35:52;101396.94;;;5.95;100.00
60307;BME280;46155;52.364;6.580;2022-11-27T16:38:17;101390.84;;;5.95;100.00
60307;BME280;46155;52.364;6.580;2022-11-27T16:40:44;101383.78;;;5.94;100.00
60307;BME280;46155;52.364;6.580;2022-11-27T16:43:10;101377.41;;;5.90;100.00
60307;BME280;46155;52.364;6.580;2022-11-27T16:45:35;101382.63;;;5.90;100.00
60307;BME280;46155;52.364;6.580;2022-11-27T16:48:01;101387.19;;;5.93;100.00
60307;BME280;46155;52.364;6.580;2022-11-27T16:50:26;101381.97;;;5.93;100.00
60307;BME280;46155;52.364;6.580;2022-11-27T16:52:53;101373.34;;;5.94;100.00
60307;BME280;46155;52.364;6.580;2022-11-27T16:55:19;101373.09;;;5.91;100.00
60307;BME280;46155;52.364;6.580;2022-11-27T16:57:45;101365.66;;;5.95;100.00
60307;BME280;46155;52.364;6.580;2022-11-27T17:00:11;101366.59;;;5.96;100.00
60307;BME280;46155;52.364;6.580;2022-11-27T17:02:37;101360.31;;;5.94;100.00
60307;BME280;46155;52.364;6.580;2022-11-27T17:05:02;101354.34;;;5.95;100.00
60307;BME280;46155;52.364;6.580;2022-11-27T17:07:28;101348.59;;;5.89;100.00
60307;BME280;46155;52.364;6.580;2022-11-27T17:09:54;101355.41;;;5.97;100.00
60307;BME280;46155;52.364;6.580;2022-11-27T17:12:19;101354.09;;;5.92;100.00
60307;BME280;46155;52.364;6.580;2022-11-27T17:14:44;101350.97;;;5.96;100.00
60307;BME280;46155;52.364;6.580;2022-11-27T17:17:11;101348.38;;;5.96;100.00
60307;BME280;46155;52.364;6.580;2022-11-27T17:19:36;101345.75;;;5.96;100.00
60307;BME280;46155;52.364;6.580;2022-11-27T17:22:02;101332.88;;;5.97;100.00
60307;BME280;46155;52.364;6.580;2022-11-27T17:24:27;101333.63;;;5.96;100.00
60307;BME280;46155;52.364;6.580;2022-11-27T17:26:53;101326.09;;;5.99;100.00
60307;BME280;46155;52.364;6.580;2022-11-27T17:29:19;101323.63;;;6.01;100.00
60307;BME280;46155;52.364;6.580;2022-11-27T17:31:45;101322.09;;;6.03;100.00
60307;BME280;46155;52.364;6.580;2022-11-27T17:34:12;101323.94;;;6.04;100.00
60307;BME280;46155;52.364;6.580;2022-11-27T17:36:39;101314.41;;;6.05;100.00
60307;BME280;46155;52.364;6.580;2022-11-27T17:39:06;101305.25;;;5.99;100.00
60307;BME280;46155;52.364;6.580;2022-11-27T17:41:33;101309.06;;;6.03;100.00
60307;BME280;46155;52.364;6.580;2022-11-27T17:43:58;101309.31;;;6.06;100.00
60307;BME280;46155;52.364;6.580;2022-11-27T17:46:26;101308.53;;;6.07;100.00
60307;BME280;46155;52.364;6.580;2022-11-27T17:48:52;101308.53;;;6.07;100.00
60307;BME280;46155;52.364;6.580;2022-11-27T17:51:19;101301.50;;;6.06;100.00
60307;BME280;46155;52.364;6.580;2022-11-27T17:53:45;101298.75;;;6.05;100.00
60307;BME280;46155;52.364;6.580;2022-11-27T17:56:13;101297.88;;;6.04;100.00